Time;durP1;ratioP1;P1;durP2;ratioP2;P2;SDS_P1;SDS_P2;PMS_P1;PMS_P2;Temp;Humidity;BMP_temperature;BMP_pressure;BME280_temperature;BME280_humidity;BME280_pressure;Samples;Min_cycle;Max_cycle;Signal;HPM_P1;HPM_P2
2021/10/29 00:01:58;;;;;;;4.73;3.77;;;;;;;;;;5145961;27;20200;-84
2021/10/29 00:04:24;;;;;;;7.03;4.47;;;4.10;99.90;;;;;;5146823;27;20185;-84
2021/10/29 00:06:50;;;;;;;4.97;4.00;;;;;;;;;;5146955;27;20207;-85
2021/10/29 00:09:16;;;;;;;7.30;4.90;;;4.00;99.90;;;;;;5145213;27;20213;-84
2021/10/29 00:11:42;;;;;;;7.70;4.43;;;;;;;;;;5146537;27;20264;-84
2021/10/29 00:14:07;;;;;;;6.63;4.80;;;4.00;99.90;;;;;;5145628;27;20548;-84
2021/10/29 00:16:33;;;;;;;7.67;4.47;;;4.10;99.90;;;;;;5146033;27;20187;-84
2021/10/29 00:18:59;;;;;;;6.63;4.23;;;;;;;;;;5146695;27;20176;-84
2021/10/29 00:21:25;;;;;;;6.30;3.97;;;3.90;99.90;;;;;;5147169;27;20279;-84
2021/10/29 00:23:51;;;;;;;5.93;4.10;;;;;;;;;;5146581;27;20199;-84
2021/10/29 00:26:17;;;;;;;6.20;4.50;;;;;;;;;;5146164;27;20181;-84
2021/10/29 00:28:43;;;;;;;9.60;4.27;;;;;;;;;;5145337;27;20264;-84
2021/10/29 00:31:09;;;;;;;10.63;5.43;;;;;;;;;;5147576;27;20212;-84
2021/10/29 00:33:36;;;;;;;6.27;4.33;;;;;;;;;;5146265;27;20189;-84
2021/10/29 00:36:01;;;;;;;5.67;4.33;;;3.70;99.90;;;;;;5146708;27;20585;-84
2021/10/29 00:38:28;;;;;;;5.70;4.23;;;;;;;;;;5147811;27;20171;-84
2021/10/29 00:40:54;;;;;;;6.30;4.27;;;3.70;99.90;;;;;;5146461;27;20224;-84
2021/10/29 00:43:20;;;;;;;6.87;4.50;;;;;;;;;;5147014;27;20193;-84
2021/10/29 00:45:47;;;;;;;5.50;3.77;;;3.60;99.90;;;;;;5146887;27;20183;-85
2021/10/29 00:48:13;;;;;;;6.47;4.47;;;;;;;;;;5148726;27;20194;-84
2021/10/29 00:50:40;;;;;;;6.97;3.80;;;3.50;99.90;;;;;;5148892;27;20231;-84
2021/10/29 00:53:07;;;;;;;7.33;3.70;;;;;;;;;;5150493;27;20184;-84
2021/10/29 00:55:34;;;;;;;6.00;3.90;;;;;;;;;;5152268;27;20180;-83
2021/10/29 00:58:00;;;;;;;6.33;4.20;;;;;;;;;;5154479;27;20187;-83
2021/10/29 01:00:26;;;;;;;6.43;4.30;;;;;;;;;;5155999;27;20185;-84
2021/10/29 01:02:52;;;;;;;5.90;3.83;;;;;;;;;;5153501;27;20254;-84
2021/10/29 01:05:18;;;;;;;5.90;3.67;;;3.30;99.90;;;;;;5151578;27;20172;-84
2021/10/29 01:07:44;;;;;;;5.97;3.40;;;;;;;;;;5146474;27;20168;-84
2021/10/29 01:10:10;;;;;;;5.67;4.13;;;;;;;;;;5144965;27;20206;-84
2021/10/29 01:12:37;;;;;;;5.33;4.17;;;;;;;;;;5146666;27;20779;-84
2021/10/29 01:15:05;;;;;;;7.37;4.00;;;3.10;99.90;;;;;;5145937;27;20239;-84
2021/10/29 01:17:30;;;;;;;4.17;3.13;;;3.00;99.90;;;;;;5146906;27;20183;-83
2021/10/29 01:19:58;;;;;;;5.90;3.63;;;3.00;99.90;;;;;;5147357;27;20528;-83
2021/10/29 01:22:25;;;;;;;4.07;3.30;;;3.00;99.90;;;;;;5144428;27;20560;-84
2021/10/29 01:24:51;;;;;;;4.73;3.53;;;2.90;99.90;;;;;;5146046;27;20181;-84
2021/10/29 01:27:18;;;;;;;4.83;3.80;;;2.90;99.90;;;;;;5144584;27;20408;-84
2021/10/29 01:29:45;;;;;;;4.43;3.23;;;2.90;99.90;;;;;;5146945;27;20452;-84
2021/10/29 01:32:11;;;;;;;6.23;3.93;;;;;;;;;;5144302;27;20480;-84
2021/10/29 01:34:39;;;;;;;6.87;4.30;;;2.90;99.90;;;;;;5144092;27;20420;-84
2021/10/29 01:37:07;;;;;;;8.43;4.17;;;2.90;99.90;;;;;;5145112;27;20424;-83
2021/10/29 01:39:34;;;;;;;9.40;4.93;;;2.90;99.90;;;;;;5145773;27;20405;-84
2021/10/29 01:42:00;;;;;;;8.90;5.23;;;;;;;;;;5144923;27;20435;-84
2021/10/29 01:44:26;;;;;;;8.37;4.63;;;;;;;;;;5144608;27;20484;-84
2021/10/29 01:46:52;;;;;;;7.40;4.33;;;2.90;99.90;;;;;;5146783;27;20397;-84
2021/10/29 01:49:18;;;;;;;6.37;4.40;;;;;;;;;;5145918;27;20540;-84
2021/10/29 01:51:44;;;;;;;6.47;3.80;;;;;;;;;;5147361;27;20224;-84
2021/10/29 01:54:11;;;;;;;4.93;3.47;;;;;;;;;;5150541;27;20422;-84
2021/10/29 01:56:38;;;;;;;4.17;3.53;;;;;;;;;;5146720;27;20491;-84
2021/10/29 01:59:04;;;;;;;4.50;3.20;;;;;;;;;;5144746;27;20411;-84
2021/10/29 02:01:30;;;;;;;4.43;3.43;;;;;;;;;;5143095;27;20428;-84
2021/10/29 02:03:56;;;;;;;7.67;3.77;;;;;;;;;;5144363;27;20434;-84
2021/10/29 02:06:22;;;;;;;4.60;3.47;;;;;;;;;;5144927;27;20396;-84
2021/10/29 02:08:48;;;;;;;5.80;3.80;;;;;;;;;;5143280;27;20431;-84
2021/10/29 02:11:15;;;;;;;4.70;3.47;;;;;;;;;;5143480;27;20474;-84
2021/10/29 02:13:41;;;;;;;5.20;3.53;;;;;;;;;;5142734;27;20413;-84
2021/10/29 02:16:07;;;;;;;3.37;3.07;;;;;;;;;;5143374;27;20409;-84
2021/10/29 02:18:33;;;;;;;4.73;3.70;;;;;;;;;;5144113;28;20412;-84
2021/10/29 02:20:59;;;;;;;4.43;3.60;;;;;;;;;;5144950;27;20906;-84
2021/10/29 02:23:26;;;;;;;5.03;3.90;;;2.70;99.90;;;;;;5144510;27;20776;-84
2021/10/29 02:25:52;;;;;;;5.23;3.03;;;;;;;;;;5143396;28;20926;-84
2021/10/29 02:28:20;;;;;;;6.00;3.17;;;2.70;99.90;;;;;;5143852;27;20456;-84
2021/10/29 02:30:47;;;;;;;5.10;3.20;;;2.70;99.90;;;;;;5145311;28;20970;-84
2021/10/29 02:33:15;;;;;;;4.83;3.40;;;2.70;99.90;;;;;;5144138;28;20499;-84
2021/10/29 02:35:41;;;;;;;3.33;2.93;;;;;;;;;;5144329;27;20416;-84
2021/10/29 02:38:07;;;;;;;4.23;3.20;;;;;;;;;;5145954;27;20396;-84
2021/10/29 02:40:33;;;;;;;5.13;3.50;;;;;;;;;;5145618;27;20175;-84
2021/10/29 02:43:01;;;;;;;3.30;2.80;;;;;;;;;;5145046;28;20493;-84
2021/10/29 02:45:27;;;;;;;10.60;6.10;;;;;;;;;;5145304;27;20479;-84
2021/10/29 02:47:53;;;;;;;9.73;5.10;;;;;;;;;;5146939;27;20400;-84
2021/10/29 02:50:21;;;;;;;5.17;3.83;;;2.80;99.90;;;;;;5144726;27;20456;-84
2021/10/29 02:52:47;;;;;;;10.13;6.43;;;;;;;;;;5149113;27;20293;-84
2021/10/29 02:55:14;;;;;;;39.70;19.90;;;;;;;;;;5150944;27;20430;-84
2021/10/29 02:57:41;;;;;;;28.87;14.93;;;;;;;;;;5149863;27;20417;-84
2021/10/29 03:00:11;;;;;;;17.10;10.80;;;2.70;99.90;;;;;;5151824;27;20423;-84
2021/10/29 03:02:37;;;;;;;32.53;16.93;;;;;;;;;;5159238;27;20417;-83
2021/10/29 03:05:04;;;;;;;114.30;56.90;;;2.70;99.90;;;;;;5150751;27;20424;-84
2021/10/29 03:07:30;;;;;;;74.33;41.17;;;;;;;;;;5152549;27;20412;-84
2021/10/29 03:09:57;;;;;;;60.97;36.23;;;;;;;;;;5148940;27;20452;-84
2021/10/29 03:12:23;;;;;;;33.90;20.57;;;;;;;;;;5147080;27;20436;-84
2021/10/29 03:14:49;;;;;;;26.40;15.67;;;;;;;;;;5148180;27;20458;-84
2021/10/29 03:17:16;;;;;;;15.87;10.77;;;;;;;;;;5148977;27;20942;-84
2021/10/29 03:19:42;;;;;;;11.63;6.67;;;;;;;;;;5147787;27;20476;-84
2021/10/29 03:22:08;;;;;;;8.57;5.40;;;;;;;;;;5148003;27;20424;-83
2021/10/29 03:24:34;;;;;;;6.30;4.43;;;;;;;;;;5147169;27;20424;-83
2021/10/29 03:27:01;;;;;;;9.00;4.93;;;;;;;;;;5147652;27;20819;-83
2021/10/29 03:29:27;;;;;;;7.80;5.50;;;;;;;;;;5146881;27;20452;-84
2021/10/29 03:31:53;;;;;;;6.03;4.33;;;;;;;;;;5146893;27;20477;-84
2021/10/29 03:34:19;;;;;;;4.93;3.53;;;;;;;;;;5146872;27;20225;-83
2021/10/29 03:36:46;;;;;;;5.73;3.60;;;;;;;;;;5147622;27;20422;-84
2021/10/29 03:39:59;;;;;;;4.80;3.77;;;;;;;;;;5148478;27;20420;-83
2021/10/29 03:42:08;;;;;;;6.57;4.30;;;;;;;;;;5144437;27;20440;-84
2021/10/29 03:47:06;;;;;;;5.70;3.30;;;;;;;;;;5148155;27;20404;-84
2021/10/29 03:49:40;;;;;;;5.63;3.40;;;;;;;;;;5146767;27;20462;-83
2021/10/29 03:52:32;;;;;;;4.57;3.57;;;;;;;;;;5147661;27;20183;-83
2021/10/29 03:54:56;;;;;;;8.17;3.27;;;;;;;;;;5147349;27;20417;-84
2021/10/29 03:57:26;;;;;;;3.80;2.93;;;;;;;;;;5147179;27;20497;-84
2021/10/29 03:59:55;;;;;;;4.60;3.23;;;;;;;;;;5147411;27;20412;-84
2021/10/29 04:02:23;;;;;;;5.23;3.73;;;2.00;99.90;;;;;;5146934;27;20428;-84
2021/10/29 04:04:49;;;;;;;4.67;3.50;;;;;;;;;;5146531;27;20828;-83
2021/10/29 04:07:15;;;;;;;7.30;3.00;;;;;;;;;;5147960;27;20738;-84
2021/10/29 04:09:44;;;;;;;5.50;3.40;;;;;;;;;;5149067;27;20520;-83
2021/10/29 04:12:12;;;;;;;4.77;3.53;;;2.00;99.90;;;;;;5149848;27;20432;-83
2021/10/29 04:14:38;;;;;;;4.80;3.40;;;;;;;;;;5148290;27;20499;-84
2021/10/29 04:17:04;;;;;;;5.30;4.17;;;;;;;;;;5150760;27;20409;-83
2021/10/29 04:19:31;;;;;;;9.00;6.50;;;;;;;;;;5148010;27;20769;-83
2021/10/29 04:21:59;;;;;;;9.17;5.77;;;;;;;;;;5148994;27;20424;-83
2021/10/29 04:24:25;;;;;;;10.60;6.93;;;;;;;;;;5146558;27;20870;-83
2021/10/29 04:26:51;;;;;;;7.77;4.87;;;;;;;;;;5148445;27;20397;-84
2021/10/29 04:29:18;;;;;;;6.13;4.67;;;;;;;;;;5148931;27;20405;-83
2021/10/29 04:31:51;;;;;;;5.60;3.87;;;1.80;99.90;;;;;;5147218;27;20424;-83
2021/10/29 04:34:22;;;;;;;8.40;3.80;;;1.70;99.90;;;;;;5146913;27;20470;-84
2021/10/29 04:36:49;;;;;;;6.53;4.17;;;1.70;99.90;;;;;;5147680;27;20408;-84
2021/10/29 04:39:15;;;;;;;6.33;3.43;;;;;;;;;;5147674;27;20419;-84
2021/10/29 04:41:42;;;;;;;4.50;3.13;;;1.70;99.90;;;;;;5149055;27;20417;-83
2021/10/29 04:44:08;;;;;;;5.50;3.20;;;;;;;;;;5147943;27;20788;-83
2021/10/29 04:46:34;;;;;;;10.00;3.57;;;1.70;99.90;;;;;;5148599;27;20439;-83
2021/10/29 04:49:01;;;;;;;7.07;3.10;;;1.70;99.90;;;;;;5148799;27;20472;-83
2021/10/29 04:51:27;;;;;;;4.63;3.30;;;;;;;;;;5148138;27;20472;-84
2021/10/29 04:53:54;;;;;;;5.57;3.03;;;;;;;;;;5147561;27;20400;-83
2021/10/29 04:56:20;;;;;;;5.93;3.53;;;;;;;;;;5146979;27;20445;-83
2021/10/29 04:58:46;;;;;;;4.47;3.07;;;;;;;;;;5152376;27;20401;-83
2021/10/29 05:01:12;;;;;;;7.30;3.60;;;;;;;;;;5156294;27;20428;-83
2021/10/29 05:03:38;;;;;;;6.57;3.50;;;;;;;;;;5154234;27;20408;-83
2021/10/29 05:06:05;;;;;;;4.93;2.97;;;;;;;;;;5151917;27;20483;-83
2021/10/29 05:08:31;;;;;;;6.13;3.10;;;;;;;;;;5157315;27;20773;-83
2021/10/29 05:10:57;;;;;;;4.57;2.93;;;;;;;;;;5156903;27;20471;-83
2021/10/29 05:13:23;;;;;;;3.17;2.50;;;;;;;;;;5151638;27;20404;-83
2021/10/29 05:15:49;;;;;;;4.33;3.10;;;;;;;;;;5146204;27;20412;-83
2021/10/29 05:18:16;;;;;;;2.97;2.67;;;;;;;;;;5145976;27;20416;-83
2021/10/29 05:20:43;;;;;;;3.37;2.40;;;1.40;99.90;;;;;;5148020;27;20439;-83
2021/10/29 05:23:09;;;;;;;5.83;3.00;;;;;;;;;;5146012;27;20447;-84
2021/10/29 05:25:35;;;;;;;6.10;3.00;;;;;;;;;;5141147;27;20417;-83
2021/10/29 05:28:01;;;;;;;5.13;3.07;;;;;;;;;;5142050;27;20187;-83
2021/10/29 05:30:27;;;;;;;5.00;3.53;;;;;;;;;;5146169;27;20202;-83
2021/10/29 05:32:54;;;;;;;11.90;3.60;;;;;;;;;;5145906;27;20194;-84
2021/10/29 05:35:21;;;;;;;8.30;3.03;;;;;;;;;;5147319;27;20704;-83
2021/10/29 05:37:47;;;;;;;3.47;2.70;;;;;;;;;;5147999;27;20409;-83
2021/10/29 05:40:13;;;;;;;5.80;3.87;;;;;;;;;;5146915;27;20505;-84
2021/10/29 05:42:39;;;;;;;8.90;3.87;;;;;;;;;;5147535;27;20205;-83
2021/10/29 05:45:06;;;;;;;5.17;2.93;;;;;;;;;;5147413;27;20400;-83
2021/10/29 05:47:32;;;;;;;6.03;2.90;;;;;;;;;;5145975;27;20417;-83
2021/10/29 05:49:58;;;;;;;3.17;2.67;;;;;;;;;;5149215;27;20467;-83
2021/10/29 05:52:26;;;;;;;4.03;3.13;;;;;;;;;;5146631;27;20431;-84
2021/10/29 05:57:27;;;;;;;6.27;2.93;;;;;;;;;;5149318;27;20392;-82
2021/10/29 05:59:54;;;;;;;5.27;2.73;;;;;;;;;;5148937;27;20433;-82
2021/10/29 06:02:20;;;;;;;6.37;3.27;;;;;;;;;;5146724;27;20804;-81
2021/10/29 06:04:47;;;;;;;5.23;2.53;;;;;;;;;;5146795;27;20462;-81
2021/10/29 06:07:13;;;;;;;10.37;4.17;;;;;;;;;;5147782;27;20406;-81
2021/10/29 06:09:39;;;;;;;3.77;2.93;;;;;;;;;;5147652;27;20509;-81
2021/10/29 06:12:05;;;;;;;3.87;2.87;;;;;;;;;;5146867;27;20440;-81
2021/10/29 06:14:32;;;;;;;4.20;2.90;;;;;;;;;;5147121;27;20412;-81
2021/10/29 06:16:58;;;;;;;3.47;2.67;;;;;;;;;;5146732;27;20420;-82
2021/10/29 06:19:25;;;;;;;5.27;3.20;;;1.60;99.90;;;;;;5147585;28;20415;-81
2021/10/29 06:22:16;;;;;;;5.63;3.30;;;;;;;;;;5147240;28;20443;-82
2021/10/29 06:24:42;;;;;;;8.07;3.00;;;1.50;99.90;;;;;;5146908;28;20408;-81
2021/10/29 06:29:34;;;;;;;10.40;3.80;;;1.50;99.90;;;;;;5153051;27;20237;-82
2021/10/29 06:32:00;;;;;;;8.17;3.73;;;;;;;;;;5153083;27;20239;-81
2021/10/29 06:34:26;;;;;;;5.50;3.00;;;;;;;;;;5151677;27;20640;-82
2021/10/29 06:36:52;;;;;;;11.23;3.90;;;;;;;;;;5155007;27;20396;-81
2021/10/29 06:39:20;;;;;;;4.83;3.40;;;1.70;99.90;;;;;;5154727;27;20404;-82
2021/10/29 06:41:46;;;;;;;5.67;3.20;;;1.70;99.90;;;;;;5152403;27;20193;-81
2021/10/29 06:46:50;;;;;;;6.40;4.17;;;;;;;;;;5153036;27;20217;-82
2021/10/29 07:40:19;;;;;;;4.50;3.17;;;;;;;;;;5153458;27;20214;-82
2021/10/29 07:42:57;;;;;;;5.83;3.00;;;3.90;99.90;;;;;;5152936;27;20199;-81
2021/10/29 07:45:26;;;;;;;4.40;3.13;;;4.30;99.90;;;;;;5149515;27;20389;-82
2021/10/29 07:47:54;;;;;;;6.70;3.40;;;4.80;99.90;;;;;;5154331;27;20190;-82
2021/10/29 07:50:20;;;;;;;4.33;3.07;;;5.20;99.90;;;;;;5159931;27;20578;-81
2021/10/29 07:52:49;;;;;;;6.10;3.30;;;5.80;99.90;;;;;;5158915;27;20221;-82
2021/10/29 07:55:18;;;;;;;7.47;3.83;;;6.60;99.90;;;;;;5153239;27;20177;-81
2021/10/29 07:57:47;;;;;;;11.23;3.97;;;7.40;99.90;;;;;;5142433;27;20204;-82
2021/10/29 08:00:15;;;;;;;5.67;3.80;;;7.80;99.90;;;;;;5149481;27;20558;-82
2021/10/29 08:02:41;;;;;;;7.90;4.20;;;8.30;99.90;;;;;;5147029;27;20201;-82
2021/10/29 08:05:07;;;;;;;6.83;4.10;;;8.70;99.90;;;;;;5147937;27;20181;-82
2021/10/29 08:07:34;;;;;;;8.80;4.13;;;9.20;99.90;;;;;;5147667;27;20189;-82
2021/10/29 08:10:04;;;;;;;7.43;4.40;;;9.70;99.90;;;;;;5146124;27;20217;-82
2021/10/29 08:12:31;;;;;;;7.40;3.80;;;10.10;99.90;;;;;;5146296;27;20191;-81
2021/10/29 08:14:57;;;;;;;6.77;3.20;;;10.40;99.90;;;;;;5146113;27;20177;-80
2021/10/29 08:17:22;;;;;;;6.80;3.50;;;10.60;99.90;;;;;;5148075;27;20242;-80
2021/10/29 08:19:48;;;;;;;5.90;3.00;;;10.50;99.90;;;;;;5148481;27;20585;-80
2021/10/29 08:22:15;;;;;;;4.03;3.00;;;10.70;99.90;;;;;;5148149;27;20235;-80
2021/10/29 08:24:41;;;;;;;4.63;3.00;;;10.80;99.90;;;;;;5146544;27;20205;-80
2021/10/29 08:27:08;;;;;;;5.10;3.03;;;11.10;99.90;;;;;;5147117;27;20175;-81
2021/10/29 08:29:38;;;;;;;4.50;2.90;;;11.20;99.90;;;;;;5139227;27;20195;-80
2021/10/29 08:32:05;;;;;;;5.87;3.37;;;11.20;99.90;;;;;;5141020;27;20220;-81
2021/10/29 08:34:32;;;;;;;4.93;3.37;;;11.20;99.90;;;;;;5146638;27;20534;-81
2021/10/29 08:36:59;;;;;;;5.00;2.93;;;11.20;99.90;;;;;;5149087;27;20173;-81
2021/10/29 08:39:25;;;;;;;6.27;3.50;;;11.60;99.90;;;;;;5149583;27;20189;-81
2021/10/29 08:41:52;;;;;;;6.63;3.17;;;11.90;99.90;;;;;;5148155;27;20214;-81
2021/10/29 08:44:18;;;;;;;6.90;3.40;;;12.10;99.90;;;;;;5149510;27;20164;-81
2021/10/29 08:46:45;;;;;;;5.30;3.33;;;12.00;99.90;;;;;;5148342;27;20192;-81
2021/10/29 08:49:12;;;;;;;4.47;3.30;;;12.20;99.90;;;;;;5147647;27;20642;-81
2021/10/29 08:51:39;;;;;;;3.57;2.90;;;12.40;99.90;;;;;;5146897;27;20205;-81
2021/10/29 08:54:06;;;;;;;3.90;3.47;;;12.50;99.90;;;;;;5147641;27;20255;-82
2021/10/29 08:56:33;;;;;;;3.70;3.00;;;12.80;99.90;;;;;;5149992;27;20188;-81
2021/10/29 08:59:30;;;;;;;4.80;3.10;;;13.10;99.90;;;;;;5149026;27;20201;-81
2021/10/29 09:02:14;;;;;;;6.20;3.87;;;13.50;99.90;;;;;;5150100;27;20204;-81
2021/10/29 09:08:02;;;;;;;4.97;3.10;;;14.10;99.90;;;;;;5151669;27;20193;-81
2021/10/29 09:32:58;;;;;;;4.67;3.33;;;15.70;99.90;;;;;;5148066;27;20223;-81
2021/10/29 09:35:29;;;;;;;5.07;3.30;;;15.80;99.90;;;;;;5147661;27;20171;-81
2021/10/29 09:38:05;;;;;;;4.43;3.23;;;15.30;99.90;;;;;;5146639;27;20167;-81
2021/10/29 09:40:35;;;;;;;4.70;3.40;;;15.50;99.90;;;;;;5147341;27;20174;-81
2021/10/29 09:43:14;;;;;;;4.07;3.00;;;15.70;99.90;;;;;;5148164;27;20174;-81
2021/10/29 09:45:51;;;;;;;6.27;3.20;;;16.00;99.90;;;;;;5144176;27;20180;-81
2021/10/29 09:48:25;;;;;;;5.20;3.37;;;16.10;99.90;;;;;;5146814;27;20159;-82
2021/10/29 09:50:57;;;;;;;8.03;3.80;;;16.30;99.90;;;;;;5145614;27;20688;-82
2021/10/29 09:53:39;;;;;;;5.23;3.17;;;16.00;99.90;;;;;;5144978;27;20176;-81
2021/10/29 09:58:51;;;;;;;4.70;3.17;;;16.10;99.90;;;;;;5147064;27;20209;-81
2021/10/29 10:01:25;;;;;;;3.87;3.30;;;16.00;99.90;;;;;;5144755;27;20195;-81
2021/10/29 10:03:52;;;;;;;4.87;3.53;;;15.20;99.90;;;;;;5144898;27;20178;-81
2021/10/29 10:06:19;;;;;;;3.70;3.10;;;14.90;99.90;;;;;;5145386;27;20193;-81
2021/10/29 10:08:45;;;;;;;3.13;2.83;;;15.50;99.90;;;;;;5146622;27;20173;-82
2021/10/29 10:11:14;;;;;;;5.23;3.47;;;16.20;99.90;;;;;;5146585;27;20209;-81
2021/10/29 10:13:41;;;;;;;4.77;3.20;;;16.70;99.90;;;;;;5144022;27;20584;-81
2021/10/29 10:16:08;;;;;;;5.17;3.57;;;17.00;99.90;;;;;;5145545;27;20249;-82
2021/10/29 10:18:34;;;;;;;7.47;3.60;;;17.10;99.90;;;;;;5143390;28;20259;-82
2021/10/29 10:21:05;;;;;;;8.13;3.43;;;17.10;99.90;;;;;;5145663;28;20195;-82
2021/10/29 10:23:35;;;;;;;4.23;3.00;;;16.90;99.90;;;;;;5146852;28;20219;-82
2021/10/29 10:26:15;;;;;;;9.40;3.40;;;16.80;99.90;;;;;;5146587;27;20543;-82
2021/10/29 10:43:13;;;;;;;4.30;2.77;;;16.80;99.90;;;;;;5143008;28;20231;-81
2021/10/29 10:45:58;;;;;;;5.03;2.90;;;16.80;99.90;;;;;;5129771;28;20180;-82
2021/10/29 10:48:29;;;;;;;3.97;3.13;;;17.00;99.90;;;;;;5135727;28;20176;-81
2021/10/29 10:51:32;;;;;;;7.40;3.20;;;17.50;99.90;;;;;;5133400;28;20224;-81
2021/10/29 11:10:24;;;;;;;4.40;3.13;;;19.70;99.30;;;;;;5128810;28;20194;-81
2021/10/29 11:12:50;;;;;;;6.10;3.70;;;20.00;96.70;;;;;;5134697;28;20208;-80
2021/10/29 11:15:23;;;;;;;4.80;3.20;;;20.00;96.20;;;;;;5139206;28;20190;-81
2021/10/29 11:17:52;;;;;;;6.20;3.13;;;20.10;96.10;;;;;;5138542;28;20174;-80
2021/10/29 11:20:40;;;;;;;4.07;2.90;;;20.20;94.70;;;;;;5133488;28;20179;-81
2021/10/29 11:23:07;;;;;;;3.93;3.13;;;20.10;96.20;;;;;;5132143;28;20265;-81
2021/10/29 11:25:58;;;;;;;4.20;2.87;;;20.30;96.50;;;;;;5134531;28;20168;-81
2021/10/29 11:28:30;;;;;;;4.20;3.20;;;20.10;94.70;;;;;;5128808;28;20170;-82
2021/10/29 11:30:57;;;;;;;3.60;3.17;;;19.90;94.90;;;;;;5129412;28;20234;-82
2021/10/29 11:33:23;;;;;;;6.40;3.30;;;19.90;94.30;;;;;;5129837;28;20244;-82
2021/10/29 11:36:05;;;;;;;5.30;3.67;;;19.70;96.30;;;;;;5128636;28;20222;-82
2021/10/29 11:38:36;;;;;;;7.53;4.17;;;19.90;95.30;;;;;;5128006;28;20553;-82
2021/10/29 11:41:06;;;;;;;6.57;3.53;;;19.90;94.10;;;;;;5126961;28;20267;-82
2021/10/29 11:43:33;;;;;;;4.77;3.80;;;20.20;94.60;;;;;;5128646;28;20222;-82
2021/10/29 11:46:05;;;;;;;4.53;3.50;;;21.00;94.10;;;;;;5133416;28;20192;-81
2021/10/29 11:48:34;;;;;;;6.50;3.10;;;21.20;92.60;;;;;;5131733;28;20184;-82
2021/10/29 11:51:06;;;;;;;4.20;3.50;;;21.70;92.00;;;;;;5129196;28;20550;-81
2021/10/29 11:53:34;;;;;;;7.17;3.40;;;21.90;90.10;;;;;;5128064;28;20176;-82
2021/10/29 11:56:04;;;;;;;4.90;3.30;;;22.10;90.00;;;;;;5125082;28;20189;-82
2021/10/29 11:58:43;;;;;;;6.90;3.70;;;22.10;89.30;;;;;;5127579;28;20170;-82
2021/10/29 12:09:27;;;;;;;5.53;3.53;;;21.50;88.10;;;;;;5125358;28;20167;-83
2021/10/29 12:11:58;;;;;;;4.17;3.40;;;21.30;87.90;;;;;;5125613;28;20293;-82
2021/10/29 12:14:36;;;;;;;5.47;3.47;;;21.40;87.90;;;;;;5125293;28;20252;-82
2021/10/29 12:17:43;;;;;;;6.20;3.90;;;21.60;88.10;;;;;;5125183;28;20260;-82
2021/10/29 12:20:07;;;;;;;6.03;3.80;;;21.90;86.70;;;;;;5125160;28;20188;-82
2021/10/29 12:22:40;;;;;;;7.43;4.37;;;22.30;88.30;;;;;;5126096;28;20197;-82
2021/10/29 12:25:21;;;;;;;3.67;3.03;;;21.90;85.90;;;;;;5124966;28;20154;-82
2021/10/29 12:28:01;;;;;;;4.50;3.90;;;21.60;87.30;;;;;;5124651;28;20177;-80
2021/10/29 12:30:34;;;;;;;5.47;3.90;;;21.90;88.40;;;;;;5127547;28;20212;-82
2021/10/29 12:53:18;;;;;;;6.33;5.50;;;22.40;83.10;;;;;;5131104;28;20204;-83
2021/10/29 13:01:56;;;;;;;7.57;4.83;;;20.20;88.50;;;;;;5083819;28;20201;-82
2021/10/29 13:04:34;;;;;;;5.33;4.50;;;19.70;89.70;;;;;;5084804;28;20175;-82
2021/10/29 13:07:02;;;;;;;5.13;4.33;;;19.50;90.20;;;;;;5104274;28;20239;-82
2021/10/29 13:09:31;;;;;;;8.37;4.93;;;19.00;91.20;;;;;;5126572;28;20174;-82
2021/10/29 13:15:02;;;;;;;7.40;4.90;;;17.90;92.90;;;;;;5114308;28;20172;-81
2021/10/29 13:17:32;;;;;;;19.53;6.47;;;17.30;94.20;;;;;;5125083;28;20195;-81
2021/10/29 13:28:42;;;;;;;6.90;5.20;;;16.40;96.50;;;;;;5126229;28;20212;-82
2021/10/29 13:50:44;;;;;;;13.47;6.10;;;16.00;98.10;;;;;;5132042;28;20203;-81
2021/10/29 14:28:19;;;;;;;19.23;9.63;;;13.20;99.90;;;;;;5115309;28;20203;-80
2021/10/29 14:30:55;;;;;;;12.97;9.70;;;13.00;99.90;;;;;;5136344;28;20211;-81
2021/10/29 14:33:27;;;;;;;16.20;10.60;;;13.00;99.90;;;;;;5135348;28;20211;-81
2021/10/29 14:35:56;;;;;;;17.10;11.10;;;12.90;99.90;;;;;;5123057;28;20171;-81
2021/10/29 14:41:05;;;;;;;20.10;10.60;;;13.00;99.90;;;;;;5124331;28;20197;-81
2021/10/29 14:43:40;;;;;;;13.13;10.40;;;13.00;99.90;;;;;;5124216;28;20149;-80
2021/10/29 14:46:21;;;;;;;15.50;10.27;;;12.90;99.90;;;;;;5123501;28;20151;-81
2021/10/29 14:49:09;;;;;;;14.50;11.03;;;12.90;99.90;;;;;;5128614;28;20293;-82
2021/10/29 15:17:19;;;;;;;22.97;12.07;;;11.70;99.90;;;;;;5137939;28;20174;-80
2021/10/29 15:29:37;;;;;;;17.67;12.70;;;11.30;99.90;;;;;;5129078;28;20172;-80
2021/10/29 15:42:48;;;;;;;17.73;12.40;;;10.80;99.90;;;;;;5130356;28;20677;-81
2021/10/29 15:45:33;;;;;;;20.87;13.67;;;10.80;99.90;;;;;;5129104;28;20168;-81
2021/10/29 15:48:20;;;;;;;27.53;14.07;;;10.70;99.90;;;;;;5129512;28;20648;-81
2021/10/29 15:50:47;;;;;;;20.23;13.23;;;10.70;99.90;;;;;;5131207;28;20194;-80
2021/10/29 15:53:13;;;;;;;24.27;14.40;;;10.60;99.90;;;;;;5131363;28;20201;-81
2021/10/29 15:55:49;;;;;;;27.13;15.10;;;10.50;99.90;;;;;;5132434;28;20159;-80
2021/10/29 15:58:32;;;;;;;22.83;15.70;;;10.40;99.90;;;;;;5128265;28;20162;-80
2021/10/29 16:17:09;;;;;;;25.03;16.87;;;9.80;99.90;;;;;;5129044;28;20228;-80
2021/10/29 16:19:35;;;;;;;24.90;16.27;;;9.70;99.90;;;;;;5129291;28;20155;-80
2021/10/29 16:22:06;;;;;;;25.83;17.10;;;9.70;99.90;;;;;;5128016;28;20188;-80
2021/10/29 16:24:33;;;;;;;24.90;15.60;;;9.70;99.90;;;;;;5125876;28;20175;-81
2021/10/29 16:26:59;;;;;;;23.30;15.90;;;9.70;99.90;;;;;;5125032;28;20179;-82
2021/10/29 16:29:25;;;;;;;22.97;16.57;;;9.70;99.90;;;;;;5126387;28;20267;-81
2021/10/29 16:31:54;;;;;;;24.40;17.03;;;9.60;99.90;;;;;;5126444;28;20271;-81
2021/10/29 16:34:20;;;;;;;26.33;18.83;;;9.60;99.90;;;;;;5125784;27;20179;-81
2021/10/29 16:36:45;;;;;;;55.47;28.10;;;9.50;99.90;;;;;;5124766;28;20197;-81
2021/10/29 16:39:12;;;;;;;526.87;187.13;;;9.50;99.90;;;;;;5125352;28;20179;-81
2021/10/29 16:41:37;;;;;;;343.27;125.73;;;9.50;99.90;;;;;;5125730;28;20237;-81
2021/10/29 16:44:03;;;;;;;346.80;123.90;;;9.40;99.90;;;;;;5126779;28;20268;-81
2021/10/29 16:46:29;;;;;;;256.00;92.60;;;9.40;99.90;;;;;;5127011;28;20696;-81
2021/10/29 16:48:55;;;;;;;97.30;45.57;;;9.40;99.90;;;;;;5125781;28;20182;-81
2021/10/29 16:51:21;;;;;;;58.90;31.20;;;9.30;99.90;;;;;;5136391;28;20213;-81
2021/10/29 16:53:47;;;;;;;53.17;27.83;;;9.20;99.90;;;;;;5139143;28;20180;-81
2021/10/29 16:56:13;;;;;;;57.37;30.50;;;9.10;99.90;;;;;;5132954;28;20183;-81
2021/10/29 16:58:41;;;;;;;55.93;30.40;;;9.10;99.90;;;;;;5138115;28;20156;-81
2021/10/29 17:01:07;;;;;;;46.67;27.93;;;9.10;99.90;;;;;;5139686;27;20674;-81
2021/10/29 17:03:33;;;;;;;41.20;27.23;;;9.00;99.90;;;;;;5138105;28;20184;-81
2021/10/29 17:05:59;;;;;;;40.37;27.73;;;8.90;99.90;;;;;;5125729;28;20179;-82
2021/10/29 17:08:25;;;;;;;36.33;25.43;;;8.90;99.90;;;;;;5128715;28;20171;-80
2021/10/29 17:10:51;;;;;;;42.57;27.90;;;8.90;99.90;;;;;;5132539;28;20219;-81
2021/10/29 17:13:17;;;;;;;46.43;28.33;;;8.90;99.90;;;;;;5127229;28;20522;-81
2021/10/29 17:15:43;;;;;;;40.93;26.10;;;8.90;99.90;;;;;;5123602;28;20227;-81
2021/10/29 17:18:08;;;;;;;49.27;33.63;;;8.80;99.90;;;;;;5122920;28;20178;-81
2021/10/29 17:20:35;;;;;;;42.13;27.53;;;8.80;99.90;;;;;;5122912;28;20299;-81
2021/10/29 17:23:01;;;;;;;44.00;26.47;;;8.70;99.90;;;;;;5123512;28;20672;-81
2021/10/29 17:25:27;;;;;;;42.50;27.97;;;8.60;99.90;;;;;;5124848;28;20187;-81
2021/10/29 17:27:53;;;;;;;43.80;26.73;;;8.50;99.90;;;;;;5126416;28;20176;-81
2021/10/29 17:30:19;;;;;;;42.87;25.57;;;8.40;99.90;;;;;;5124133;28;20211;-81
2021/10/29 17:32:47;;;;;;;37.43;26.37;;;8.30;99.90;;;;;;5124270;28;20609;-81
2021/10/29 17:35:14;;;;;;;41.93;25.63;;;8.20;99.90;;;;;;5123577;28;20183;-82
2021/10/29 17:37:40;;;;;;;36.80;25.70;;;8.10;99.90;;;;;;5126578;28;20177;-81
2021/10/29 17:40:08;;;;;;;30.83;21.83;;;8.10;99.90;;;;;;5125688;28;20186;-81
2021/10/29 17:42:35;;;;;;;30.97;21.77;;;8.00;99.90;;;;;;5123499;28;20233;-82
2021/10/29 17:45:02;;;;;;;34.73;21.63;;;8.00;99.90;;;;;;5123043;28;20397;-82
2021/10/29 17:47:28;;;;;;;26.30;19.83;;;8.00;99.90;;;;;;5125209;28;20174;-81
2021/10/29 17:49:54;;;;;;;27.53;19.63;;;8.00;99.90;;;;;;5126884;28;20191;-82
2021/10/29 17:52:24;;;;;;;24.70;18.50;;;7.90;99.90;;;;;;5126048;28;20196;-82
2021/10/29 17:54:52;;;;;;;26.43;18.70;;;7.90;99.90;;;;;;5127070;28;20147;-82
2021/10/29 17:57:19;;;;;;;25.30;19.33;;;7.80;99.90;;;;;;5126529;28;20521;-82
2021/10/29 17:59:45;;;;;;;27.13;20.93;;;7.80;99.90;;;;;;5123905;28;20185;-82
2021/10/29 18:02:12;;;;;;;36.00;22.80;;;7.80;99.90;;;;;;5125263;28;20198;-82
2021/10/29 18:04:39;;;;;;;31.50;21.33;;;7.70;99.90;;;;;;5125381;28;20180;-80
2021/10/29 18:07:07;;;;;;;106.07;75.10;;;7.70;99.90;;;;;;5125237;28;20197;-82
2021/10/29 18:09:37;;;;;;;260.13;171.53;;;7.60;99.90;;;;;;5123125;28;20176;-82
2021/10/29 18:12:06;;;;;;;127.93;80.87;;;7.50;99.90;;;;;;5122404;28;20277;-81
2021/10/29 18:14:34;;;;;;;104.33;68.23;;;7.40;99.90;;;;;;5123347;28;20178;-81
2021/10/29 18:17:00;;;;;;;105.17;68.60;;;7.40;99.90;;;;;;5121143;28;20170;-81